Time;durP1;ratioP1;P1;durP2;ratioP2;P2;SDS_P1;SDS_P2;PMS_P1;PMS_P2;Temp;Humidity;BMP_temperature;BMP_pressure;BME280_temperature;BME280_humidity;BME280_pressure;Samples;Min_cycle;Max_cycle;Signal;HPM_P1;HPM_P2
2022/09/19 00:01:39;;;;;;;6.00;3.50;;;;;;;;;;4974244;28;20329;-78
2022/09/19 00:04:07;;;;;;;5.00;3.20;;;;;;;;;;4975049;28;20241;-78
2022/09/19 00:06:37;;;;;;;5.57;3.53;;;;;;;;;;4969519;28;20326;-79
2022/09/19 00:09:04;;;;;;;5.43;3.23;;;;;;;;;;4956063;28;20234;-79
2022/09/19 00:11:32;;;;;;;5.70;3.90;;;;;;;;;;4963102;28;20254;-79
2022/09/19 00:14:00;;;;;;;4.13;3.70;;;;;;;;;;4956003;28;20240;-78
2022/09/19 00:16:28;;;;;;;6.23;3.70;;;;;;;;;;4965701;28;20242;-79
2022/09/19 00:18:57;;;;;;;5.97;3.70;;;;;;;;;;4974947;28;20240;-79
2022/09/19 00:21:24;;;;;;;6.83;3.83;;;;;;;;;;4960543;28;20223;-79
2022/09/19 00:26:38;;;;;;;5.83;3.63;;;;;;;;;;4962795;28;20571;-79
2022/09/19 00:29:06;;;;;;;6.70;4.03;;;;;;;;;;4974288;28;20202;-79
2022/09/19 00:31:34;;;;;;;5.07;3.53;;;;;;;;;;4964880;28;20199;-79
2022/09/19 00:34:06;;;;;;;4.67;3.50;;;;;;;;;;4973442;28;20641;-79
2022/09/19 00:36:33;;;;;;;4.27;3.50;;;;;;;;;;4966389;28;20207;-79
2022/09/19 00:39:02;;;;;;;5.93;3.77;;;;;;;;;;4974566;28;20210;-79
2022/09/19 00:41:30;;;;;;;5.13;3.40;;;;;;;;;;4968337;28;20248;-79
2022/09/19 00:43:58;;;;;;;5.90;3.40;;;;;;;;;;4968480;28;20720;-78
2022/09/19 00:46:27;;;;;;;3.70;3.30;;;;;;;;;;4956712;28;20265;-79
2022/09/19 00:48:56;;;;;;;4.87;3.30;;;;;;;;;;4968811;28;20565;-79
2022/09/19 00:51:28;;;;;;;4.77;3.17;;;;;;;;;;4971468;28;20229;-79
2022/09/19 00:53:55;;;;;;;3.87;3.30;;;;;;;;;;4954527;28;20594;-78
2022/09/19 00:56:24;;;;;;;3.50;3.20;;;;;;;;;;4962801;28;20203;-78
2022/09/19 00:58:51;;;;;;;4.27;3.30;;;;;;;;;;4973061;28;20240;-78
2022/09/19 01:01:19;;;;;;;6.90;3.70;;;;;;;;;;4974158;28;20721;-79
2022/09/19 01:03:47;;;;;;;4.17;3.53;;;;;;;;;;4969470;28;20250;-78
2022/09/19 01:06:26;;;;;;;5.87;3.80;;;;;;;;;;4968406;28;20215;-79
2022/09/19 01:09:07;;;;;;;5.43;3.60;;;;;;;;;;4956189;28;20738;-79
2022/09/19 01:11:49;;;;;;;5.50;4.00;;;;;;;;;;4967102;28;20289;-79
2022/09/19 01:14:26;;;;;;;5.70;3.50;;;;;;;;;;4972224;28;20203;-79
2022/09/19 01:16:54;;;;;;;4.33;3.47;;;;;;;;;;4954204;28;20199;-79
2022/09/19 01:19:36;;;;;;;4.27;3.43;;;;;;;;;;4967866;28;20209;-79
2022/09/19 01:22:05;;;;;;;4.43;3.00;;;;;;;;;;4954849;28;20251;-79
2022/09/19 01:24:42;;;;;;;4.03;3.17;;;;;;;;;;4955399;28;20324;-79
2022/09/19 01:27:24;;;;;;;6.17;3.60;;;;;;;;;;4960858;28;20235;-79
2022/09/19 01:29:54;;;;;;;4.20;3.80;;;;;;;;;;4971058;28;20249;-79
2022/09/19 01:32:25;;;;;;;5.20;3.70;;;;;;;;;;4972079;28;20248;-79
2022/09/19 01:34:54;;;;;;;4.40;3.23;;;;;;;;;;4960013;28;20232;-79
2022/09/19 01:37:30;;;;;;;4.37;3.60;;;;;;;;;;4966033;28;20688;-79
2022/09/19 01:39:59;;;;;;;5.20;4.17;;;;;;;;;;4970796;28;20687;-79
2022/09/19 01:42:26;;;;;;;5.40;3.90;;;;;;;;;;4973320;28;20286;-79
2022/09/19 01:44:55;;;;;;;4.90;4.00;;;;;;;;;;4973027;28;20673;-79
2022/09/19 01:47:24;;;;;;;6.17;4.10;;;;;;;;;;4963310;28;20294;-79
2022/09/19 01:49:53;;;;;;;5.87;3.70;;;;;;;;;;4973094;28;20199;-79
2022/09/19 01:52:27;;;;;;;5.33;4.30;;;;;;;;;;4975877;28;20288;-79
2022/09/19 01:54:58;;;;;;;5.37;4.20;;;;;;;;;;4976941;28;20206;-78
2022/09/19 01:57:31;;;;;;;5.17;3.60;;;;;;;;;;4974619;28;20287;-79
2022/09/19 02:00:04;;;;;;;4.63;3.67;;;;;;;;;;4962251;28;20235;-79
2022/09/19 02:02:38;;;;;;;4.90;3.63;;;;;;;;;;4958571;28;20258;-79
2022/09/19 02:05:07;;;;;;;4.63;3.90;;;;;;;;;;4965514;28;20269;-79
2022/09/19 02:07:42;;;;;;;4.40;4.00;;;;;;;;;;4970678;28;20605;-79
2022/09/19 02:10:11;;;;;;;6.47;4.07;;;;;;;;;;4963101;28;20209;-79
2022/09/19 02:12:39;;;;;;;6.70;3.80;;;;;;;;;;4961872;28;20199;-79
2022/09/19 02:15:11;;;;;;;5.77;4.20;;;;;;;;;;4975874;28;20231;-79
2022/09/19 02:17:44;;;;;;;4.27;3.60;;;;;;;;;;4977560;28;20287;-79
2022/09/19 02:20:13;;;;;;;4.27;3.77;;;;;;;;;;4976059;28;20220;-78
2022/09/19 02:22:47;;;;;;;5.00;3.70;;;;;;;;;;4976981;28;20233;-78
2022/09/19 02:25:17;;;;;;;6.07;3.73;;;;;;;;;;4967624;28;20214;-79
2022/09/19 02:27:47;;;;;;;5.17;3.73;;;;;;;;;;4963356;28;20262;-78
2022/09/19 02:30:19;;;;;;;4.60;3.53;;;;;;;;;;4974691;28;20207;-79
2022/09/19 02:32:48;;;;;;;5.10;3.73;;;;;;;;;;4973155;28;20213;-79
2022/09/19 02:35:16;;;;;;;4.73;3.93;;;;;;;;;;4976673;28;20206;-78
2022/09/19 02:37:47;;;;;;;5.63;4.00;;;;;;;;;;4970840;28;20233;-79
2022/09/19 02:40:20;;;;;;;6.13;3.60;;;;;;;;;;4960333;28;20674;-79
2022/09/19 02:42:49;;;;;;;6.63;4.10;;;;;;;;;;4958135;28;20227;-79
2022/09/19 02:45:21;;;;;;;6.53;3.97;;;;;;;;;;4975794;28;20627;-79
2022/09/19 02:47:51;;;;;;;4.60;3.83;;;;;;;;;;4976992;28;20203;-79
2022/09/19 02:50:23;;;;;;;5.50;4.00;;;;;;;;;;4968822;28;20220;-79
2022/09/19 02:52:51;;;;;;;4.37;3.90;;;;;;;;;;4964301;28;20200;-79
2022/09/19 02:55:23;;;;;;;6.00;4.27;;;;;;;;;;4976378;28;20285;-79
2022/09/19 02:57:53;;;;;;;4.90;4.17;;;;;;;;;;4975505;28;20198;-78
2022/09/19 03:00:21;;;;;;;5.70;4.03;;;;;;;;;;4968972;28;20206;-79
2022/09/19 03:02:56;;;;;;;6.53;4.07;;;;;;;;;;4959047;28;20319;-78
2022/09/19 03:05:25;;;;;;;4.53;4.13;;;;;;;;;;4956815;28;20208;-78
2022/09/19 03:07:56;;;;;;;6.33;3.70;;;;;;;;;;4973626;28;20800;-79
2022/09/19 03:10:25;;;;;;;4.30;3.80;;;;;;;;;;4975977;28;20242;-79
2022/09/19 03:12:54;;;;;;;4.77;3.97;;;;;;;;;;4975253;28;20216;-78
2022/09/19 03:15:24;;;;;;;6.43;4.10;;;;;;;;;;4976478;28;20213;-78
2022/09/19 03:17:53;;;;;;;4.87;4.20;;;;;;;;;;4975669;28;20208;-79
2022/09/19 03:20:24;;;;;;;6.20;4.30;;;;;;;;;;4975466;28;20205;-79
2022/09/19 03:22:53;;;;;;;6.13;4.17;;;;;;;;;;4975426;28;20219;-79
2022/09/19 03:25:21;;;;;;;4.70;4.03;;;;;;;;;;4975043;28;20209;-78
2022/09/19 03:27:49;;;;;;;4.43;4.00;;;;;;;;;;4961478;28;20236;-79
2022/09/19 03:30:16;;;;;;;5.70;4.17;;;;;;;;;;4975596;28;20206;-79
2022/09/19 03:32:45;;;;;;;4.50;4.07;;;;;;;;;;4966674;28;20219;-79
2022/09/19 03:35:14;;;;;;;6.53;4.30;;;;;;;;;;4957263;28;20274;-79
2022/09/19 03:37:41;;;;;;;5.87;4.20;;;;;;;;;;4961028;28;20253;-78
2022/09/19 03:40:09;;;;;;;5.27;4.57;;;;;;;;;;4964788;28;20718;-79
2022/09/19 03:42:37;;;;;;;7.10;4.70;;;;;;;;;;4970314;28;20234;-79
2022/09/19 03:45:04;;;;;;;4.90;4.40;;;;;;;;;;4975277;28;20232;-79
2022/09/19 03:47:32;;;;;;;5.83;4.70;;;;;;;;;;4974975;28;20261;-79
2022/09/19 03:50:01;;;;;;;6.90;5.30;;;;;;;;;;4975512;28;20211;-79
2022/09/19 03:52:28;;;;;;;5.70;4.67;;;;;;;;;;4975334;28;20205;-79
2022/09/19 03:54:56;;;;;;;6.47;5.33;;;;;;;;;;4975412;28;20235;-79
2022/09/19 03:57:23;;;;;;;6.07;4.80;;;;;;;;;;4975376;28;20234;-79
2022/09/19 03:59:51;;;;;;;6.97;5.10;;;;;;;;;;4975359;28;20322;-79
2022/09/19 04:02:18;;;;;;;6.27;5.07;;;;;;;;;;4974494;28;20702;-79
2022/09/19 04:04:45;;;;;;;6.67;5.23;;;;;;;;;;4974846;28;20234;-79
2022/09/19 04:07:15;;;;;;;8.00;5.73;;;;;;;;;;4974744;28;20289;-79
2022/09/19 04:09:42;;;;;;;8.47;5.37;;;;;;;;;;4967013;28;20209;-79
2022/09/19 04:12:10;;;;;;;7.97;5.27;;;;;;;;;;4967958;28;20234;-79
2022/09/19 04:14:38;;;;;;;6.27;5.20;;;;;;;;;;4973205;28;20601;-79
2022/09/19 04:17:07;;;;;;;6.33;5.60;;;;;;;;;;4974254;28;20210;-79
2022/09/19 04:19:34;;;;;;;6.80;4.93;;;;;;;;;;4975133;28;20305;-79
2022/09/19 04:22:01;;;;;;;5.53;4.90;;;;;;;;;;4975043;28;20223;-79
2022/09/19 04:24:30;;;;;;;5.60;4.53;;;;;;;;;;4975204;28;20230;-79
2022/09/19 04:26:59;;;;;;;5.13;4.60;;;;;;;;;;4973547;28;20293;-79
2022/09/19 04:29:27;;;;;;;6.00;5.00;;;;;;;;;;4955814;28;20258;-79
2022/09/19 04:31:54;;;;;;;6.77;5.03;;;;;;;;;;4965108;28;20197;-79
2022/09/19 04:34:22;;;;;;;7.57;4.70;;;;;;;;;;4974703;28;20207;-79
2022/09/19 04:36:50;;;;;;;5.97;4.70;;;;;;;;;;4974787;28;20206;-79
2022/09/19 04:39:17;;;;;;;7.23;4.97;;;;;;;;;;4974461;28;20199;-79
2022/09/19 04:41:45;;;;;;;5.60;4.63;;;;;;;;;;4970751;28;20773;-79
2022/09/19 04:44:13;;;;;;;7.40;4.40;;;;;;;;;;4967545;28;20234;-78
2022/09/19 04:46:41;;;;;;;5.37;4.60;;;;;;;;;;4974292;28;20234;-79
2022/09/19 04:49:08;;;;;;;6.07;4.70;;;;;;;;;;4968038;28;20199;-79
2022/09/19 04:51:36;;;;;;;5.60;4.57;;;;;;;;;;4970981;28;20225;-78
2022/09/19 04:54:05;;;;;;;5.90;4.90;;;;;;;;;;4974062;28;20578;-78
2022/09/19 04:56:32;;;;;;;5.23;4.40;;;;;;;;;;4974104;28;20206;-79
2022/09/19 04:59:01;;;;;;;7.67;4.80;;;;;;;;;;4971906;28;20241;-79
2022/09/19 05:01:30;;;;;;;6.00;4.90;;;;;;;;;;4973532;28;20207;-79
2022/09/19 05:03:57;;;;;;;6.77;5.30;;;;;;;;;;4964825;28;20216;-82
2022/09/19 05:06:28;;;;;;;7.47;5.23;;;;;;;;;;4973775;28;20240;-80
2022/09/19 05:08:56;;;;;;;8.50;5.20;;;;;;;;;;4962860;28;20234;-81
2022/09/19 05:11:23;;;;;;;6.30;4.93;;;;;;;;;;4964011;28;20709;-81
2022/09/19 05:13:51;;;;;;;6.67;4.90;;;;;;;;;;4971436;28;20245;-81
2022/09/19 05:16:20;;;;;;;5.73;4.90;;;;;;;;;;4972987;28;20265;-81
2022/09/19 05:18:49;;;;;;;5.93;4.77;;;;;;;;;;4973244;28;20203;-81
2022/09/19 05:21:17;;;;;;;6.50;4.80;;;;;;;;;;4973546;28;20198;-81
2022/09/19 05:23:44;;;;;;;6.67;5.13;;;;;;;;;;4962360;28;20226;-81
2022/09/19 05:26:15;;;;;;;6.57;5.07;;;;;;;;;;4974238;28;20234;-82
2022/09/19 05:28:43;;;;;;;6.13;4.93;;;;;;;;;;4973404;28;20201;-82
2022/09/19 05:31:10;;;;;;;6.87;5.27;;;;;;;;;;4959862;28;20206;-82
2022/09/19 05:33:39;;;;;;;6.47;5.33;;;;;;;;;;4963258;28;20233;-82
2022/09/19 05:36:07;;;;;;;7.40;5.37;;;;;;;;;;4967293;28;20237;-81
2022/09/19 05:38:34;;;;;;;9.00;6.00;;;;;;;;;;4964452;28;20237;-82
2022/09/19 05:41:02;;;;;;;6.77;5.67;;;;;;;;;;4974026;28;20206;-80
2022/09/19 05:43:29;;;;;;;7.83;5.63;;;;;;;;;;4968137;28;20773;-78
2022/09/19 05:45:57;;;;;;;9.70;5.90;;;;;;;;;;4973045;28;20235;-80
2022/09/19 05:48:25;;;;;;;7.63;6.13;;;;;;;;;;4968514;28;20202;-81
2022/09/19 05:50:54;;;;;;;7.83;6.33;;;;;;;;;;4971629;28;20297;-80
2022/09/19 05:56:08;;;;;;;8.63;6.30;;;;;;;;;;4954378;29;20207;-80
2022/09/19 05:58:36;;;;;;;7.63;6.17;;;;;;;;;;4953901;28;20235;-80
2022/09/19 06:01:04;;;;;;;6.33;5.67;;;;;;;;;;4953687;28;20247;-81
2022/09/19 06:03:33;;;;;;;7.57;6.57;;;;;;;;;;4954106;28;20317;-80
2022/09/19 06:06:01;;;;;;;9.40;6.47;;;;;;;;;;4954199;28;20202;-80
2022/09/19 06:08:30;;;;;;;8.07;6.07;;;;;;;;;;4953884;28;20785;-79
2022/09/19 06:11:00;;;;;;;8.43;6.43;;;;;;;;;;4967716;28;20214;-79
2022/09/19 06:14:13;;;;;;;7.43;6.63;;;;;;;;;;4973876;28;20255;-79
2022/09/19 06:16:17;;;;;;;8.80;6.57;;;;;;;;;;4973138;28;20206;-79
2022/09/19 06:18:44;;;;;;;7.57;5.90;;;;;;;;;;4973592;28;20214;-79
2022/09/19 06:21:13;;;;;;;6.87;5.60;;;;;;;;;;4974079;28;20230;-80
2022/09/19 06:23:40;;;;;;;11.83;6.10;;;;;;;;;;4992675;28;20226;-80
2022/09/19 06:26:07;;;;;;;8.53;6.07;;;;;;;;;;4986772;28;20252;-79
2022/09/19 06:28:35;;;;;;;7.07;5.63;;;;;;;;;;4973624;28;20619;-80
2022/09/19 06:31:03;;;;;;;6.43;5.80;;;;;;;;;;4959857;28;20234;-80
2022/09/19 06:33:30;;;;;;;7.50;5.60;;;;;;;;;;4954201;28;20208;-80
2022/09/19 06:35:59;;;;;;;8.90;6.60;;;;;;;;;;4954189;28;20637;-80
2022/09/19 06:38:28;;;;;;;9.57;7.17;;;;;;;;;;4971515;28;20600;-80
2022/09/19 06:40:55;;;;;;;8.50;6.60;;;;;;;;;;4976778;28;20813;-79
2022/09/19 06:43:22;;;;;;;11.77;8.07;;;;;;;;;;4976273;28;20256;-80
2022/09/19 06:45:49;;;;;;;8.50;7.53;;;;;;;;;;4976514;28;20209;-80
2022/09/19 06:48:17;;;;;;;9.27;6.53;;;;;;;;;;4976743;28;20241;-80
2022/09/19 06:50:47;;;;;;;8.63;5.37;;;;;;;;;;4964864;28;20213;-81
2022/09/19 06:53:14;;;;;;;5.57;4.93;;;;;;;;;;4964866;28;20210;-80
2022/09/19 06:55:43;;;;;;;5.80;4.57;;;;;;;;;;4976656;28;20202;-80
2022/09/19 06:58:11;;;;;;;5.47;3.90;;;;;;;;;;4975768;28;20222;-80
2022/09/19 07:00:40;;;;;;;5.00;3.77;;;;;;;;;;4956783;28;20258;-80
2022/09/19 07:03:08;;;;;;;4.47;3.87;;;;;;;;;;4956679;29;20269;-81
2022/09/19 07:05:36;;;;;;;6.83;3.80;;;;;;;;;;4956514;29;20207;-78
2022/09/19 07:08:04;;;;;;;5.90;3.70;;;;;;;;;;4956371;28;20247;-78
2022/09/19 07:10:31;;;;;;;3.37;3.17;;;;;;;;;;4957059;29;20632;-77
2022/09/19 07:13:01;;;;;;;4.67;3.57;;;;;;;;;;4960413;28;20281;-78
2022/09/19 07:15:29;;;;;;;3.77;3.30;;;;;;;;;;4965429;28;20572;-78
2022/09/19 07:17:56;;;;;;;5.20;3.40;;;;;;;;;;4956596;28;20226;-78
2022/09/19 07:20:23;;;;;;;3.47;3.17;;;;;;;;;;4956450;28;20207;-78
2022/09/19 07:22:59;;;;;;;5.70;2.88;;;;;;;;;;4972468;28;20309;-78
2022/09/19 07:25:26;;;;;;;3.78;3.08;;;;;;;;;;4976067;28;20202;-78
2022/09/19 07:27:55;;;;;;;4.30;2.60;;;;;;;;;;4975489;28;20237;-78
2022/09/19 07:30:24;;;;;;;3.10;2.80;;;;;;;;;;4975230;28;20625;-78
2022/09/19 07:32:51;;;;;;;3.42;2.85;;;;;;;;;;4975720;28;20195;-78
2022/09/19 07:35:18;;;;;;;3.67;2.83;;;;;;;;;;4976081;28;20233;-78
2022/09/19 07:37:49;;;;;;;3.40;2.60;;;;;;;;;;4975683;28;20234;-78
2022/09/19 07:40:17;;;;;;;3.50;2.80;;;;;;;;;;4975322;28;20237;-78
2022/09/19 07:42:44;;;;;;;3.83;3.30;;;;;;;;;;4973446;28;20641;-78
2022/09/19 07:45:12;;;;;;;5.72;3.13;;;;;;;;;;4975286;28;20386;-78
2022/09/19 07:47:44;;;;;;;4.15;2.88;;;;;;;;;;4973778;28;20289;-78
2022/09/19 07:50:14;;;;;;;3.92;2.88;;;;;;;;;;4975449;28;20236;-79
2022/09/19 07:52:41;;;;;;;3.30;2.90;;;;;;;;;;4975165;28;20202;-79
2022/09/19 07:55:10;;;;;;;5.07;2.80;;;;;;;;;;4962850;28;20215;-79
2022/09/19 07:57:37;;;;;;;4.82;2.70;;;;;;;;;;4957850;28;20211;-78
2022/09/19 08:00:06;;;;;;;3.92;2.65;;;;;;;;;;4975097;28;20242;-79
2022/09/19 08:02:33;;;;;;;5.47;2.80;;;;;;;;;;4972170;28;20238;-79
2022/09/19 08:05:02;;;;;;;3.30;2.67;;;;;;;;;;4974972;28;20293;-79
2022/09/19 08:07:29;;;;;;;4.15;2.63;;;;;;;;;;4974293;28;20321;-79
2022/09/19 08:09:56;;;;;;;2.60;2.40;;;;;;;;;;4975110;28;20198;-79
2022/09/19 08:12:23;;;;;;;2.88;2.60;;;;;;;;;;4955438;28;20234;-79
2022/09/19 08:14:51;;;;;;;3.30;2.58;;;;;;;;;;4966284;28;20198;-79
2022/09/19 08:17:19;;;;;;;3.03;2.58;;;;;;;;;;4960519;28;20238;-79
2022/09/19 08:19:46;;;;;;;3.47;2.63;;;;;;;;;;4972862;28;20210;-79
2022/09/19 08:22:15;;;;;;;3.55;2.50;;;;;;;;;;4975219;28;20198;-79
2022/09/19 08:24:42;;;;;;;2.45;2.15;;;;;;;;;;4974582;28;20321;-79
2022/09/19 08:27:10;;;;;;;3.92;1.80;;;;;;;;;;4973731;28;20289;-79
2022/09/19 08:29:38;;;;;;;4.35;1.80;;;;;;;;;;4972278;28;20202;-79
2022/09/19 08:32:06;;;;;;;3.47;1.60;;;;;;;;;;4974481;28;20229;-79
2022/09/19 08:34:34;;;;;;;2.63;1.70;;;;;;;;;;4974026;28;20245;-79
2022/09/19 08:37:01;;;;;;;2.28;1.65;;;;;;;;;;4966992;28;20234;-79
2022/09/19 08:39:30;;;;;;;2.22;1.52;;;;;;;;;;4959911;28;20241;-79
2022/09/19 08:42:05;;;;;;;2.45;1.55;;;;;;;;;;4955933;28;20249;-78
2022/09/19 08:44:41;;;;;;;3.25;1.80;;;;;;;;;;4960289;28;20757;-78
2022/09/19 08:47:13;;;;;;;3.20;1.60;;;;;;;;;;4974271;28;20234;-79
2022/09/19 08:49:42;;;;;;;2.80;1.50;;;;;;;;;;4974375;28;20670;-79
2022/09/19 08:52:12;;;;;;;3.05;1.60;;;;;;;;;;4972929;28;20230;-79
2022/09/19 08:54:42;;;;;;;2.70;1.33;;;;;;;;;;4967456;28;20290;-79
2022/09/19 08:57:13;;;;;;;3.13;1.50;;;;;;;;;;4973529;28;20206;-79
2022/09/19 08:59:41;;;;;;;2.08;1.38;;;;;;;;;;4973308;28;20237;-79
2022/09/19 09:02:11;;;;;;;1.55;1.20;;;;;;;;;;4969688;28;20249;-79
2022/09/19 09:04:38;;;;;;;2.35;1.30;;;;;;;;;;4959349;28;20254;-79
2022/09/19 09:07:15;;;;;;;1.35;1.17;;;;;;;;;;4967311;28;20269;-79
2022/09/19 09:09:51;;;;;;;3.20;1.48;;;;;;;;;;4973713;28;20665;-79
2022/09/19 09:12:26;;;;;;;1.98;1.05;;;;;;;;;;4973760;28;20266;-79
2022/09/19 09:15:03;;;;;;;2.22;1.05;;;;;;;;;;4974014;28;20204;-79
2022/09/19 09:17:35;;;;;;;2.63;1.15;;;;;;;;;;4966324;28;20213;-79
2022/09/19 09:20:17;;;;;;;2.00;1.00;;;;;;;;;;4954679;28;20676;-79
2022/09/19 09:22:45;;;;;;;1.17;0.90;;;;;;;;;;4954178;28;20213;-79
2022/09/19 09:25:16;;;;;;;1.85;0.80;;;;;;;;;;4953803;28;20239;-79
2022/09/19 09:27:47;;;;;;;1.77;1.10;;;;;;;;;;4954472;28;20710;-79
2022/09/19 09:30:17;;;;;;;1.98;1.15;;;;;;;;;;4954239;28;20616;-79
2022/09/19 09:32:47;;;;;;;1.30;1.00;;;;;;;;;;4958978;28;20310;-79
2022/09/19 09:35:21;;;;;;;1.38;1.00;;;;;;;;;;4972956;28;20658;-79
2022/09/19 09:37:53;;;;;;;2.65;1.05;;;;;;;;;;4973239;28;20205;-79
2022/09/19 09:43:07;;;;;;;3.78;1.10;;;;;;;;;;4961904;28;20628;-79
2022/09/19 09:45:38;;;;;;;2.50;1.33;;;;;;;;;;4970957;28;20238;-79
2022/09/19 09:48:09;;;;;;;2.83;1.38;;;;;;;;;;4973516;28;20202;-79
2022/09/19 09:50:46;;;;;;;3.67;1.30;;;;;;;;;;4968217;28;20234;-79
2022/09/19 09:53:19;;;;;;;1.48;1.10;;;;;;;;;;4953763;28;20199;-79
2022/09/19 09:58:37;;;;;;;2.40;1.20;;;;;;;;;;4973180;28;20201;-79
2022/09/19 10:04:03;;;;;;;1.60;0.95;;;;;;;;;;4973251;28;20253;-79
2022/09/19 10:06:32;;;;;;;1.55;1.15;;;;;;;;;;4972685;28;20203;-79
2022/09/19 10:09:03;;;;;;;1.98;0.90;;;;;;;;;;4973335;28;20671;-79
2022/09/19 10:11:36;;;;;;;1.40;1.10;;;;;;;;;;4967210;28;20199;-79
2022/09/19 10:14:04;;;;;;;3.55;1.17;;;;;;;;;;4972567;28;20229;-79
2022/09/19 10:16:32;;;;;;;2.20;1.08;;;;;;;;;;4976517;28;20211;-79
2022/09/19 10:19:04;;;;;;;2.08;1.00;;;;;;;;;;4976651;28;20257;-79
2022/09/19 10:21:32;;;;;;;1.05;0.85;;;;;;;;;;4968573;28;20206;-78
2022/09/19 10:24:00;;;;;;;2.72;1.17;;;;;;;;;;4968279;28;20240;-79
2022/09/19 10:26:30;;;;;;;2.08;0.95;;;;;;;;;;4972297;28;20628;-79
2022/09/19 10:29:00;;;;;;;1.42;1.00;;;;;;;;;;4976615;28;20293;-79
2022/09/19 10:31:32;;;;;;;1.50;1.08;;;;;;;;;;4977037;28;20206;-79
2022/09/19 10:34:03;;;;;;;1.27;0.88;;;;;;;;;;4973032;28;20231;-79
2022/09/19 10:36:34;;;;;;;3.33;1.33;;;;;;;;;;4972950;28;20280;-79
2022/09/19 10:39:05;;;;;;;2.03;1.02;;;;;;;;;;4968409;28;20199;-79
2022/09/19 10:41:32;;;;;;;2.40;1.10;;;;;;;;;;4956730;28;20211;-79
2022/09/19 10:44:02;;;;;;;2.17;1.00;;;;;;;;;;4957700;28;20227;-78
2022/09/19 10:46:35;;;;;;;4.20;1.30;;;;;;;;;;4957976;28;20203;-79
2022/09/19 10:49:05;;;;;;;1.98;1.10;;;;;;;;;;4957423;28;20199;-78
2022/09/19 10:51:33;;;;;;;3.38;0.95;;;;;;;;;;4956640;28;20247;-79
2022/09/19 10:54:11;;;;;;;1.20;0.93;;;;;;;;;;4973423;28;20210;-79
2022/09/19 10:56:40;;;;;;;2.15;1.10;;;;;;;;;;4975970;28;20202;-79
2022/09/19 10:59:20;;;;;;;1.55;1.10;;;;;;;;;;4959475;28;20239;-79
2022/09/19 11:02:05;;;;;;;1.20;0.80;;;;;;;;;;4976225;28;20202;-79
2022/09/19 11:04:32;;;;;;;1.88;1.10;;;;;;;;;;4972768;28;20257;-79
2022/09/19 11:07:01;;;;;;;2.65;1.15;;;;;;;;;;4970271;28;20756;-79
2022/09/19 11:09:29;;;;;;;1.60;0.90;;;;;;;;;;4957086;28;20199;-79
2022/09/19 11:12:04;;;;;;;1.77;0.90;;;;;;;;;;4964152;28;20194;-78
2022/09/19 11:14:34;;;;;;;1.50;0.90;;;;;;;;;;4975809;28;20229;-79
2022/09/19 11:17:15;;;;;;;3.75;1.55;;;;;;;;;;4975741;28;20210;-79
2022/09/19 11:19:49;;;;;;;1.35;1.00;;;;;;;;;;4976131;28;20205;-79
2022/09/19 11:22:25;;;;;;;1.17;0.80;;;;;;;;;;4974201;28;20202;-79
2022/09/19 11:24:59;;;;;;;1.25;0.80;;;;;;;;;;4975116;28;20218;-79
2022/09/19 11:27:34;;;;;;;2.65;0.90;;;;;;;;;;4975360;28;20233;-79
2022/09/19 11:30:12;;;;;;;2.25;0.98;;;;;;;;;;4956370;28;20572;-79
2022/09/19 11:32:44;;;;;;;2.15;0.95;;;;;;;;;;4957138;28;20251;-79
2022/09/19 11:35:23;;;;;;;1.45;0.88;;;;;;;;;;4974699;28;20662;-79
2022/09/19 11:37:55;;;;;;;1.83;1.00;;;;;;;;;;4975945;28;20297;-79
2022/09/19 11:40:30;;;;;;;2.28;1.00;;;;;;;;;;4975551;28;20206;-79
2022/09/19 11:43:02;;;;;;;1.17;1.00;;;;;;;;;;4975455;28;20266;-79
2022/09/19 11:45:35;;;;;;;1.55;0.90;;;;;;;;;;4974834;28;20305;-79
2022/09/19 11:48:11;;;;;;;1.75;0.80;;;;;;;;;;4975211;28;20678;-81
2022/09/19 11:50:45;;;;;;;1.35;0.70;;;;;;;;;;4975271;28;20245;-82
2022/09/19 11:53:30;;;;;;;1.10;0.80;;;;;;;;;;4974703;28;20234;-81
2022/09/19 11:56:03;;;;;;;1.25;0.90;;;;;;;;;;4973297;28;20214;-82
2022/09/19 11:58:34;;;;;;;1.35;0.98;;;;;;;;;;4980882;28;20261;-82
2022/09/19 12:01:08;;;;;;;2.10;0.90;;;;;;;;;;4992392;28;20256;-82
2022/09/19 12:03:43;;;;;;;2.92;1.00;;;;;;;;;;4989179;28;20265;-82
2022/09/19 12:06:24;;;;;;;1.88;0.95;;;;;;;;;;4991586;28;20738;-82
2022/09/19 12:09:05;;;;;;;1.25;0.85;;;;;;;;;;4992296;28;20721;-81
2022/09/19 12:11:37;;;;;;;2.00;0.82;;;;;;;;;;4992232;28;20233;-81
2022/09/19 12:14:09;;;;;;;1.50;1.00;;;;;;;;;;4992298;28;20325;-82
2022/09/19 12:16:40;;;;;;;1.85;0.85;;;;;;;;;;4991942;28;20205;-81
2022/09/19 12:19:10;;;;;;;1.80;0.90;;;;;;;;;;4991773;28;20202;-81
2022/09/19 12:21:40;;;;;;;1.40;0.85;;;;;;;;;;4992074;28;20201;-81
2022/09/19 12:27:00;;;;;;;1.02;0.70;;;;;;;;;;4986581;28;20221;-81
2022/09/19 12:29:34;;;;;;;1.23;0.70;;;;;;;;;;4983308;28;20315;-81
2022/09/19 12:32:13;;;;;;;1.35;0.90;;;;;;;;;;4991236;28;20274;-81
2022/09/19 12:34:44;;;;;;;2.45;0.75;;;;;;;;;;4973874;28;20229;-81
2022/09/19 12:37:16;;;;;;;1.05;0.80;;;;;;;;;;4974727;28;20199;-81
2022/09/19 12:39:46;;;;;;;1.10;0.70;;;;;;;;;;4974506;28;20221;-81
2022/09/19 12:42:17;;;;;;;0.73;0.60;;;;;;;;;;4973984;28;20202;-81
2022/09/19 12:44:49;;;;;;;3.33;1.10;;;;;;;;;;4974112;28;20683;-81
2022/09/19 12:47:21;;;;;;;0.82;0.80;;;;;;;;;;4974329;28;20210;-81
2022/09/19 12:49:56;;;;;;;1.50;0.80;;;;;;;;;;4964706;28;20198;-81
2022/09/19 12:52:25;;;;;;;2.65;0.80;;;;;;;;;;4974347;28;20206;-82
2022/09/19 12:54:57;;;;;;;1.30;0.70;;;;;;;;;;4973764;28;20261;-81
2022/09/19 12:57:31;;;;;;;1.45;0.88;;;;;;;;;;4974410;28;20198;-81
2022/09/19 12:59:59;;;;;;;1.40;0.80;;;;;;;;;;4974131;28;20209;-81
2022/09/19 13:02:30;;;;;;;2.63;0.90;;;;;;;;;;4972232;28;20234;-81
2022/09/19 13:05:00;;;;;;;1.80;0.63;;;;;;;;;;4973338;28;20261;-81
2022/09/19 13:07:32;;;;;;;1.00;0.80;;;;;;;;;;4973193;28;20245;-81
2022/09/19 13:10:02;;;;;;;1.73;1.10;;;;;;;;;;4973473;28;20211;-82
2022/09/19 13:12:34;;;;;;;1.00;0.80;;;;;;;;;;4973775;28;20217;-81
2022/09/19 13:15:05;;;;;;;2.13;0.80;;;;;;;;;;4972304;28;20244;-81
2022/09/19 13:23:35;;;;;;;1.27;0.75;;;;;;;;;;4972953;28;20202;-81
2022/09/19 13:26:19;;;;;;;1.02;0.93;;;;;;;;;;4973819;28;20253;-80
2022/09/19 13:28:48;;;;;;;2.42;0.80;;;;;;;;;;4973826;28;20210;-81
2022/09/19 13:31:17;;;;;;;1.25;0.80;;;;;;;;;;4972100;28;20732;-81
2022/09/19 13:33:47;;;;;;;2.08;0.80;;;;;;;;;;4954420;28;20199;-81
2022/09/19 13:36:16;;;;;;;1.33;0.90;;;;;;;;;;4952817;28;20270;-81
2022/09/19 13:38:45;;;;;;;1.33;0.77;;;;;;;;;;4964437;28;20234;-81
2022/09/19 13:41:18;;;;;;;1.30;0.85;;;;;;;;;;4973873;28;20198;-81
2022/09/19 13:43:55;;;;;;;0.80;0.80;;;;;;;;;;4970642;28;20234;-81
2022/09/19 13:46:25;;;;;;;3.75;0.90;;;;;;;;;;4971568;28;20301;-80
2022/09/19 13:48:58;;;;;;;0.88;0.75;;;;;;;;;;4963931;28;20249;-81
2022/09/19 13:51:39;;;;;;;1.10;0.80;;;;;;;;;;4970015;28;20234;-81
2022/09/19 13:54:24;;;;;;;1.23;0.73;;;;;;;;;;4964314;28;20293;-80
2022/09/19 13:57:03;;;;;;;0.90;0.70;;;;;;;;;;4977637;28;20705;-80
2022/09/19 13:59:31;;;;;;;1.80;0.80;;;;;;;;;;4977547;28;20233;-81
2022/09/19 14:01:59;;;;;;;1.13;0.70;;;;;;;;;;4977059;28;20198;-80
2022/09/19 14:04:57;;;;;;;1.25;0.80;;;;;;;;;;4977302;28;20226;-81
2022/09/19 14:07:28;;;;;;;0.80;0.77;;;;;;;;;;4977089;28;20242;-81
2022/09/19 14:09:56;;;;;;;1.35;0.80;;;;;;;;;;4977660;28;20207;-81
2022/09/19 14:12:47;;;;;;;1.08;0.80;;;;;;;;;;4975682;28;20232;-80
2022/09/19 14:15:40;;;;;;;1.40;0.85;;;;;;;;;;4980309;28;20203;-80
2022/09/19 14:18:32;;;;;;;1.15;0.80;;;;;;;;;;4971057;28;20289;-80
2022/09/19 14:21:02;;;;;;;0.70;0.70;;;;;;;;;;4974985;28;20209;-80
2022/09/19 14:23:31;;;;;;;1.55;0.80;;;;;;;;;;4974613;28;20226;-81
2022/09/19 14:26:00;;;;;;;0.80;0.70;;;;;;;;;;4969626;28;20266;-81
2022/09/19 14:28:44;;;;;;;2.03;0.80;;;;;;;;;;4960225;28;20643;-80
2022/09/19 14:31:23;;;;;;;1.42;0.88;;;;;;;;;;4961843;28;20203;-81
2022/09/19 14:34:19;;;;;;;2.92;0.90;;;;;;;;;;4971113;28;20293;-80
2022/09/19 14:37:15;;;;;;;2.22;0.95;;;;;;;;;;4974346;28;20215;-80
2022/09/19 14:39:51;;;;;;;3.08;1.23;;;;;;;;;;4952913;28;20211;-80
2022/09/19 14:42:47;;;;;;;1.05;0.82;;;;;;;;;;4973649;28;20293;-80
2022/09/19 14:45:25;;;;;;;1.42;0.90;;;;;;;;;;4938775;29;20227;-80
2022/09/19 14:47:54;;;;;;;1.30;0.80;;;;;;;;;;4954490;28;20675;-80
2022/09/19 14:50:22;;;;;;;0.88;0.80;;;;;;;;;;4972954;28;20781;-79
2022/09/19 14:52:58;;;;;;;1.08;0.90;;;;;;;;;;4973822;28;20238;-80
2022/09/19 14:55:28;;;;;;;2.92;1.00;;;;;;;;;;4975489;28;20693;-80
2022/09/19 14:57:55;;;;;;;2.53;0.90;;;;;;;;;;4959914;28;20302;-80
2022/09/19 15:00:24;;;;;;;2.13;0.98;;;;;;;;;;4964201;28;20252;-80
2022/09/19 15:02:52;;;;;;;1.75;0.90;;;;;;;;;;4962624;28;20211;-81
2022/09/19 15:05:20;;;;;;;2.05;1.08;;;;;;;;;;4956925;28;20258;-81
2022/09/19 15:07:47;;;;;;;2.20;0.90;;;;;;;;;;4956515;28;20615;-80
2022/09/19 15:10:34;;;;;;;1.70;1.10;;;;;;;;;;4957244;28;20207;-80
2022/09/19 15:13:10;;;;;;;1.40;1.10;;;;;;;;;;4967268;28;20660;-81
2022/09/19 15:15:39;;;;;;;2.22;0.90;;;;;;;;;;4975444;28;20202;-80
2022/09/19 15:18:18;;;;;;;2.55;1.05;;;;;;;;;;4956723;28;20235;-80
2022/09/19 15:20:45;;;;;;;5.05;0.90;;;;;;;;;;4956598;29;20199;-80
2022/09/19 15:23:12;;;;;;;1.58;0.90;;;;;;;;;;4970549;28;20265;-80
2022/09/19 15:25:42;;;;;;;2.70;1.20;;;;;;;;;;4966974;28;20218;-80
2022/09/19 15:28:25;;;;;;;1.73;1.00;;;;;;;;;;4967496;28;20195;-80